Time;durP1;ratioP1;P1;durP2;ratioP2;P2;SDS_P1;SDS_P2;PMS_P1;PMS_P2;Temp;Humidity;BMP_temperature;BMP_pressure;BME280_temperature;BME280_humidity;BME280_pressure;Samples;Min_cycle;Max_cycle;Signal;HPM_P1;HPM_P2
2022/07/13 00:01:36;;;;;;;8.88;5.95;;;;;;;21.80;72.54;102007.78;4996417;28;20419;-72
2022/07/13 00:04:02;;;;;;;8.35;5.65;;;;;;;21.82;73.05;102007.56;4996206;28;20026;-73
2022/07/13 00:06:27;;;;;;;9.20;5.75;;;;;;;21.69;73.52;102007.81;4995203;28;20037;-73
2022/07/13 00:08:52;;;;;;;8.07;5.82;;;;;;;21.55;73.62;102013.31;4996217;28;20041;-73
2022/07/13 00:11:18;;;;;;;9.35;6.05;;;;;;;21.52;73.74;101998.00;4994932;28;20022;-74
2022/07/13 00:13:43;;;;;;;8.55;5.90;;;;;;;21.56;73.22;102003.59;4995965;28;20109;-72
2022/07/13 00:16:09;;;;;;;10.93;6.82;;;;;;;21.55;73.00;102005.44;4996106;28;20026;-73
2022/07/13 00:18:34;;;;;;;7.95;6.15;;;;;;;21.49;72.81;102001.09;4996010;28;20019;-72
2022/07/13 00:20:59;;;;;;;9.30;5.38;;;;;;;21.45;72.97;101993.88;4995994;28;20033;-72
2022/07/13 00:23:25;;;;;;;8.00;6.10;;;;;;;21.34;73.51;101998.09;4996028;28;20105;-73
2022/07/13 00:25:50;;;;;;;8.52;6.15;;;;;;;21.31;73.60;101995.91;4994525;28;20077;-72
2022/07/13 00:28:16;;;;;;;7.55;6.05;;;;;;;21.24;74.04;101988.16;4995838;28;20041;-72
2022/07/13 00:30:41;;;;;;;9.32;6.15;;;;;;;21.24;74.27;101982.09;4995770;28;20105;-72
2022/07/13 00:33:07;;;;;;;10.95;6.00;;;;;;;21.27;73.71;101981.63;4995753;28;20072;-71
2022/07/13 00:35:32;;;;;;;9.18;5.90;;;;;;;21.40;73.57;101971.69;4995793;28;20022;-71
2022/07/13 00:37:57;;;;;;;7.53;6.05;;;;;;;21.43;73.21;101974.91;4995642;28;20156;-72
2022/07/13 00:40:23;;;;;;;11.70;6.22;;;;;;;21.37;73.68;101977.41;4995844;28;20025;-72
2022/07/13 00:42:48;;;;;;;12.88;6.13;;;;;;;21.35;73.54;101974.22;4995635;28;20030;-72
2022/07/13 00:45:14;;;;;;;10.02;5.97;;;;;;;21.40;73.31;101982.22;4995446;28;20053;-72
2022/07/13 00:47:39;;;;;;;11.00;6.10;;;;;;;21.44;73.13;101979.16;4995551;28;20053;-73
2022/07/13 00:50:07;;;;;;;8.18;5.80;;;;;;;21.51;72.21;101969.28;4995473;28;20033;-73
2022/07/13 00:52:36;;;;;;;10.70;6.35;;;;;;;21.45;72.02;101973.66;4995563;28;20034;-73
2022/07/13 00:55:03;;;;;;;10.43;6.00;;;;;;;21.53;71.60;101965.41;4994136;28;20027;-73
2022/07/13 00:57:32;;;;;;;9.52;6.20;;;;;;;21.46;71.48;101975.22;4993961;28;20125;-73
2022/07/13 00:59:58;;;;;;;11.80;6.55;;;;;;;21.44;71.25;101966.00;4994050;28;20034;-73
2022/07/13 01:02:24;;;;;;;12.60;6.43;;;;;;;21.40;71.63;101960.38;4993965;28;20034;-73
2022/07/13 01:04:49;;;;;;;9.07;6.05;;;;;;;21.40;71.37;101955.13;5010119;28;20424;-73
2022/07/13 01:07:14;;;;;;;11.73;6.15;;;;;;;21.36;71.37;101951.34;4993816;28;20481;-73
2022/07/13 01:09:41;;;;;;;12.73;6.50;;;;;;;21.36;71.56;101948.72;4977642;28;20504;-73
2022/07/13 01:12:06;;;;;;;8.98;6.20;;;;;;;21.32;71.74;101944.94;4995101;28;20030;-73
2022/07/13 01:14:34;;;;;;;9.93;6.00;;;;;;;21.24;71.90;101945.31;4994961;28;20026;-73
2022/07/13 01:16:59;;;;;;;9.52;5.82;;;;;;;21.29;71.62;101946.22;4994955;28;20101;-73
2022/07/13 01:19:25;;;;;;;8.88;5.85;;;;;;;21.30;71.98;101939.13;4993683;28;20054;-74
2022/07/13 01:21:58;;;;;;;8.35;5.72;;;;;;;21.37;71.80;101950.31;4994832;28;20073;-73
2022/07/13 01:24:23;;;;;;;10.27;6.05;;;;;;;21.33;71.32;101957.84;4994691;28;20393;-73
2022/07/13 01:26:49;;;;;;;11.05;6.40;;;;;;;21.29;71.76;101948.84;4993068;28;20018;-73
2022/07/13 01:29:14;;;;;;;9.27;6.25;;;;;;;21.32;72.48;101950.19;4994793;28;20037;-73
2022/07/13 01:31:41;;;;;;;11.32;6.25;;;;;;;21.38;71.81;101944.84;4994710;28;20026;-73
2022/07/13 01:34:08;;;;;;;9.90;6.60;;;;;;;21.35;72.07;101945.28;4993352;28;20164;-73
2022/07/13 01:36:35;;;;;;;12.38;7.18;;;;;;;21.36;72.11;101948.72;4993357;28;20033;-73
2022/07/13 01:39:00;;;;;;;10.82;7.07;;;;;;;21.37;72.02;101937.19;4994518;28;20033;-74
2022/07/13 01:41:28;;;;;;;10.65;7.20;;;;;;;21.31;72.08;101936.25;4994432;28;20026;-73
2022/07/13 01:43:53;;;;;;;9.27;7.25;;;;;;;21.29;72.41;101929.63;4994521;28;20046;-73
2022/07/13 01:46:19;;;;;;;10.82;7.60;;;;;;;21.28;72.45;101930.66;4994242;28;20429;-73
2022/07/13 01:48:44;;;;;;;12.25;7.97;;;;;;;21.26;72.70;101932.69;4994334;28;20026;-73
2022/07/13 01:51:10;;;;;;;13.48;7.40;;;;;;;21.31;72.56;101922.31;4994731;28;20088;-73
2022/07/13 01:53:35;;;;;;;16.58;8.07;;;;;;;21.38;71.92;101920.41;4994337;28;20026;-73
2022/07/13 01:56:00;;;;;;;12.52;8.10;;;;;;;21.39;71.69;101917.53;4994328;28;20018;-73
2022/07/13 01:58:28;;;;;;;17.15;7.93;;;;;;;21.42;71.32;101915.47;4994257;28;20061;-73
2022/07/13 02:00:55;;;;;;;17.38;8.00;;;;;;;21.43;71.18;101909.16;5009247;28;20049;-73
2022/07/13 02:03:20;;;;;;;11.45;8.13;;;;;;;21.48;71.07;101911.91;4992994;28;20076;-73
2022/07/13 02:05:46;;;;;;;13.55;8.27;;;;;;;21.54;70.91;101913.59;4992749;28;20033;-73
2022/07/13 02:08:11;;;;;;;15.65;7.90;;;;;;;21.57;70.44;101913.94;4994018;28;20022;-73
2022/07/13 02:10:37;;;;;;;11.85;8.35;;;;;;;21.54;70.20;101903.09;4994137;28;20022;-73
2022/07/13 02:13:13;;;;;;;11.95;7.88;;;;;;;21.56;70.45;101901.81;4992681;28;20385;-74
2022/07/13 02:15:40;;;;;;;12.40;7.97;;;;;;;21.56;70.38;101911.56;4992612;28;20370;-72
2022/07/13 02:18:06;;;;;;;13.50;8.10;;;;;;;21.57;70.04;101906.03;4992597;28;20125;-72
2022/07/13 02:20:31;;;;;;;14.60;8.00;;;;;;;21.54;70.23;101908.34;4992494;28;20035;-72
2022/07/13 02:22:57;;;;;;;19.17;7.93;;;;;;;21.55;70.10;101920.44;4993911;28;20426;-72
2022/07/13 02:25:22;;;;;;;11.52;7.63;;;;;;;21.54;70.15;101909.13;4993652;28;20546;-73
2022/07/13 02:27:47;;;;;;;12.77;7.90;;;;;;;21.62;69.67;101908.78;4992525;28;20038;-72
2022/07/13 02:30:14;;;;;;;14.45;7.63;;;;;;;21.68;69.97;101907.03;4993670;28;20022;-74
2022/07/13 02:32:41;;;;;;;13.75;8.18;;;;;;;21.63;69.63;101905.09;4992430;28;20608;-73
2022/07/13 02:35:07;;;;;;;9.70;7.43;;;;;;;21.63;69.90;101906.94;4992464;28;20041;-73
2022/07/13 02:37:33;;;;;;;12.95;8.30;;;;;;;21.63;69.70;101906.94;4992873;28;20026;-73
2022/07/13 02:39:58;;;;;;;10.13;7.85;;;;;;;21.67;69.51;101902.03;4992382;28;20541;-73
2022/07/13 02:42:24;;;;;;;12.77;8.18;;;;;;;21.60;69.65;101891.63;4993955;28;20030;-73
2022/07/13 02:44:50;;;;;;;10.00;7.88;;;;;;;21.62;69.58;101898.25;4992096;28;20089;-73
2022/07/13 02:47:15;;;;;;;12.63;8.32;;;;;;;21.55;69.79;101888.91;4992231;28;20037;-73
2022/07/13 02:49:41;;;;;;;13.15;9.13;;;;;;;21.52;69.90;101892.00;4993451;28;20030;-74
2022/07/13 02:52:06;;;;;;;13.48;8.20;;;;;;;21.52;70.05;101890.19;5008592;28;20102;-73
2022/07/13 02:54:32;;;;;;;19.30;8.85;;;;;;;21.51;70.28;101893.81;4993530;28;20389;-73
2022/07/13 02:56:58;;;;;;;14.30;8.57;;;;;;;21.58;70.34;101884.00;4993498;28;20042;-73
2022/07/13 02:59:23;;;;;;;17.13;9.02;;;;;;;21.54;70.13;101882.03;4993441;28;20061;-73
2022/07/13 03:01:48;;;;;;;12.50;8.88;;;;;;;21.52;70.66;101881.47;4993474;28;20524;-73
2022/07/13 03:04:14;;;;;;;16.92;9.45;;;;;;;21.49;70.59;101882.75;4993232;28;20058;-73
2022/07/13 03:06:39;;;;;;;18.05;9.52;;;;;;;21.33;71.23;101876.34;4993360;28;20433;-73
2022/07/13 03:09:04;;;;;;;15.70;9.25;;;;;;;21.26;71.60;101877.50;4993296;28;20097;-73
2022/07/13 03:11:29;;;;;;;16.83;9.77;;;;;;;21.40;71.58;101882.28;4992051;28;20049;-73
2022/07/13 03:13:55;;;;;;;21.13;9.70;;;;;;;21.42;71.48;101870.75;4993331;28;20101;-73
2022/07/13 03:16:20;;;;;;;18.20;9.95;;;;;;;21.37;71.61;101872.25;4993260;28;20030;-73
2022/07/13 03:18:45;;;;;;;13.68;10.27;;;;;;;21.29;72.05;101869.16;4993454;28;20100;-73
2022/07/13 03:21:11;;;;;;;15.82;10.18;;;;;;;21.28;72.33;101864.94;4991975;28;20058;-73
2022/07/13 03:23:36;;;;;;;16.40;9.90;;;;;;;21.29;72.10;101856.00;4993283;28;20347;-73
2022/07/13 03:26:02;;;;;;;18.75;10.32;;;;;;;21.30;72.41;101858.41;4993139;28;20030;-73
2022/07/13 03:28:27;;;;;;;14.65;10.57;;;;;;;21.21;72.73;101859.03;4993225;28;20505;-74
2022/07/13 03:30:53;;;;;;;18.65;10.48;;;;;;;21.26;72.48;101856.47;4993083;28;20031;-73
2022/07/13 03:33:18;;;;;;;12.98;10.10;;;;;;;21.34;72.73;101867.44;4993161;28;20040;-73
2022/07/13 03:35:43;;;;;;;18.50;10.63;;;;;;;21.35;72.63;101863.00;4993156;28;20093;-73
2022/07/13 03:38:09;;;;;;;15.35;9.95;;;;;;;21.35;72.36;101863.78;4991831;28;20432;-73
2022/07/13 03:40:34;;;;;;;16.10;10.43;;;;;;;21.33;72.44;101870.31;4993289;28;20528;-73
2022/07/13 03:42:59;;;;;;;15.13;10.48;;;;;;;21.31;72.29;101867.09;4993009;28;20492;-74
2022/07/13 03:45:25;;;;;;;15.60;9.65;;;;;;;21.33;72.24;101865.84;4992969;28;20050;-73
2022/07/13 03:47:50;;;;;;;18.05;10.35;;;;;;;21.39;71.90;101867.56;4993002;28;20027;-73
2022/07/13 03:50:15;;;;;;;16.02;10.30;;;;;;;21.38;71.96;101859.94;4995781;28;20075;-73
2022/07/13 03:52:40;;;;;;;15.18;10.43;;;;;;;21.31;72.49;101859.22;4996582;28;20022;-73
2022/07/13 03:55:07;;;;;;;17.63;11.10;;;;;;;21.17;72.93;101850.78;4996479;28;20533;-73
2022/07/13 03:57:33;;;;;;;18.83;10.45;;;;;;;21.39;72.49;101851.00;4996527;28;20030;-73
2022/07/13 03:59:58;;;;;;;15.20;10.95;;;;;;;21.36;72.41;101848.81;4996417;28;20124;-73
2022/07/13 04:02:24;;;;;;;16.70;10.82;;;;;;;21.39;72.48;101851.78;4995044;28;20047;-73
2022/07/13 04:04:49;;;;;;;18.20;11.02;;;;;;;21.36;72.75;101847.00;4996279;28;20074;-73
2022/07/13 04:07:14;;;;;;;15.15;11.20;;;;;;;21.33;72.55;101839.53;4996312;28;20108;-73
2022/07/13 04:09:40;;;;;;;18.05;10.77;;;;;;;21.38;72.64;101860.72;4996293;28;20026;-73
2022/07/13 04:12:05;;;;;;;15.10;10.10;;;;;;;21.45;72.81;101855.31;4994752;28;20113;-73
2022/07/13 04:14:31;;;;;;;15.93;10.40;;;;;;;21.53;72.55;101857.59;4996060;28;20037;-73
2022/07/13 04:16:56;;;;;;;13.93;9.88;;;;;;;21.44;72.56;101861.63;4996034;28;20058;-73
2022/07/13 04:19:21;;;;;;;19.58;10.57;;;;;;;21.52;72.06;101863.06;4996012;28;20026;-73
2022/07/13 04:21:46;;;;;;;14.38;10.02;;;;;;;21.60;71.54;101849.53;4995883;28;20018;-73
2022/07/13 04:24:12;;;;;;;18.42;11.05;;;;;;;21.59;71.82;101853.22;4994568;28;20429;-73
2022/07/13 04:26:37;;;;;;;12.98;9.68;;;;;;;21.65;72.08;101851.47;4994572;28;20048;-73
2022/07/13 04:29:02;;;;;;;13.00;10.15;;;;;;;21.59;71.75;101853.22;4995977;28;20389;-73
2022/07/13 04:31:27;;;;;;;19.58;10.23;;;;;;;21.58;71.76;101841.13;4995782;28;20096;-73
2022/07/13 04:33:53;;;;;;;15.57;11.13;;;;;;;21.65;71.16;101844.38;4995855;28;20026;-73
2022/07/13 04:36:18;;;;;;;16.83;10.88;;;;;;;21.61;71.71;101846.69;4995788;28;20363;-73
2022/07/13 04:38:45;;;;;;;18.27;10.50;;;;;;;21.64;71.41;101832.28;4996016;28;20170;-72
2022/07/13 04:41:11;;;;;;;20.10;10.73;;;;;;;21.65;71.56;101839.13;4995608;28;20430;-72
2022/07/13 04:43:36;;;;;;;16.73;10.00;;;;;;;21.69;71.40;101840.25;4995504;28;20030;-72
2022/07/13 04:46:02;;;;;;;16.92;10.57;;;;;;;21.69;71.70;101837.59;4995440;28;20038;-72
2022/07/13 04:48:28;;;;;;;16.58;9.57;;;;;;;21.76;71.52;101829.59;4994258;28;20034;-72
2022/07/13 04:50:53;;;;;;;18.13;9.52;;;;;;;21.78;71.26;101823.06;4994222;28;20030;-72
2022/07/13 04:53:18;;;;;;;16.50;10.18;;;;;;;21.81;70.14;101817.31;4994198;28;20060;-72
2022/07/13 04:55:44;;;;;;;15.30;9.73;;;;;;;21.82;71.08;101820.75;4994087;28;20023;-72
2022/07/13 04:58:10;;;;;;;16.20;9.35;;;;;;;21.98;69.71;101811.28;4995624;28;20026;-74
2022/07/13 05:00:35;;;;;;;14.02;8.77;;;;;;;21.94;69.24;101823.31;4993149;28;20129;-72
2022/07/13 05:03:01;;;;;;;13.05;8.80;;;;;;;22.12;68.98;101823.09;4995295;28;20027;-72
2022/07/13 05:05:31;;;;;;;11.82;8.65;;;;;;;21.97;69.31;101817.56;4993811;28;20026;-73
2022/07/13 05:07:57;;;;;;;17.13;8.90;;;;;;;22.00;69.34;101812.63;4995193;28;20386;-73
2022/07/13 05:10:22;;;;;;;14.00;8.20;;;;;;;22.03;68.73;101820.03;4995349;28;20076;-72
2022/07/13 05:12:48;;;;;;;15.20;8.85;;;;;;;22.07;68.81;101818.56;4995079;28;20037;-72
2022/07/13 05:15:13;;;;;;;11.85;8.32;;;;;;;22.17;68.03;101812.66;4995143;28;20496;-73
2022/07/13 05:17:38;;;;;;;13.57;8.65;;;;;;;22.14;67.97;101818.38;4994930;28;20057;-73
2022/07/13 05:20:05;;;;;;;14.00;8.00;;;;;;;22.20;68.30;101835.09;4993981;28;20527;-73
2022/07/13 05:22:31;;;;;;;11.98;8.20;;;;;;;22.16;68.01;101820.78;4993593;28;20490;-73
2022/07/13 05:24:56;;;;;;;10.95;7.70;;;;;;;22.23;67.53;101821.44;4994899;28;20041;-73
2022/07/13 05:27:22;;;;;;;12.50;7.88;;;;;;;22.18;68.65;101809.03;4993518;28;20457;-73
2022/07/13 05:29:47;;;;;;;10.60;7.63;;;;;;;22.21;68.44;101826.16;4994897;28;20093;-73
2022/07/13 05:32:13;;;;;;;13.55;8.27;;;;;;;22.15;68.32;101838.41;4994755;28;20022;-73
2022/07/13 05:34:38;;;;;;;12.63;7.63;;;;;;;22.05;68.64;101827.72;4994681;28;20032;-73
2022/07/13 05:37:04;;;;;;;10.98;7.47;;;;;;;22.08;68.31;101828.03;4993438;28;20076;-74
2022/07/13 05:39:30;;;;;;;12.57;7.78;;;;;;;22.17;68.47;101822.38;4994272;28;20094;-73
2022/07/13 05:41:55;;;;;;;14.35;7.85;;;;;;;22.38;67.55;101826.16;4991892;28;20437;-72
2022/07/13 05:44:21;;;;;;;12.02;7.38;;;;;;;22.24;67.88;101830.94;4992378;28;20117;-73
2022/07/13 05:46:46;;;;;;;11.90;7.30;;;;;;;22.22;68.35;101835.66;4992951;28;20540;-72
2022/07/13 05:49:11;;;;;;;12.77;7.22;;;;;;;22.29;67.83;101820.50;4992675;28;20080;-73
2022/07/13 05:51:37;;;;;;;11.27;7.50;;;;;;;22.32;67.87;101830.53;4992208;28;20381;-72
2022/07/13 05:54:02;;;;;;;12.18;6.85;;;;;;;22.42;67.58;101840.44;4994276;28;20026;-72
2022/07/13 05:56:27;;;;;;;13.57;7.05;;;;;;;22.45;67.52;101838.13;4993061;28;20367;-72
2022/07/13 05:58:53;;;;;;;14.60;7.10;;;;;;;22.55;67.80;101845.38;4992893;28;20022;-72
2022/07/13 06:01:18;;;;;;;11.00;7.18;;;;;;;22.77;66.96;101837.53;4994260;28;20026;-72
2022/07/13 06:03:43;;;;;;;11.82;6.63;;;;;;;22.78;66.78;101833.84;4994101;28;20019;-72
2022/07/13 06:06:08;;;;;;;9.70;6.40;;;;;;;22.79;66.21;101838.09;4993009;28;20425;-72
2022/07/13 06:08:34;;;;;;;14.00;7.20;;;;;;;22.74;66.21;101840.66;4994246;28;20072;-72
2022/07/13 06:10:59;;;;;;;13.80;6.03;;;;;;;22.74;66.55;101838.00;4993987;28;20030;-73
2022/07/13 06:13:24;;;;;;;10.23;6.38;;;;;;;22.82;66.88;101842.06;4992640;28;20109;-73
2022/07/13 06:15:50;;;;;;;11.38;6.25;;;;;;;22.89;66.52;101840.03;4992510;28;20029;-72
2022/07/13 06:18:15;;;;;;;11.57;6.35;;;;;;;22.81;66.02;101835.97;4992488;28;20485;-73
2022/07/13 06:20:40;;;;;;;10.07;6.35;;;;;;;22.93;66.34;101835.88;4993914;28;20026;-72
2022/07/13 06:23:11;;;;;;;9.70;5.88;;;;;;;23.15;65.73;101833.28;4993912;28;20026;-72
2022/07/13 06:25:38;;;;;;;11.18;5.75;;;;;;;23.59;64.68;101844.59;4992968;28;20385;-73
2022/07/13 06:28:05;;;;;;;10.02;6.07;;;;;;;23.82;64.14;101843.53;4992545;28;20109;-73
2022/07/13 06:30:30;;;;;;;8.98;5.93;;;;;;;24.05;63.09;101842.44;4993154;28;20092;-73
2022/07/13 06:32:55;;;;;;;10.80;5.68;;;;;;;24.33;62.15;101845.78;4993501;28;20062;-73
2022/07/13 06:35:20;;;;;;;11.82;6.47;;;;;;;24.40;61.97;101837.63;4993828;28;20437;-72
2022/07/13 06:37:46;;;;;;;14.15;6.38;;;;;;;24.61;61.84;101839.41;4992412;28;20032;-72
2022/07/13 06:40:11;;;;;;;13.57;5.88;;;;;;;25.33;61.00;101845.03;4993548;28;20030;-73
2022/07/13 06:42:37;;;;;;;10.23;6.30;;;;;;;25.47;59.40;101840.84;4993549;28;20081;-73
2022/07/13 06:45:03;;;;;;;10.20;6.05;;;;;;;26.39;56.98;101834.81;4993329;28;20129;-73
2022/07/13 06:47:29;;;;;;;10.48;5.57;;;;;;;30.38;46.78;101837.06;4992078;28;20030;-73
2022/07/13 06:49:54;;;;;;;8.68;5.63;;;;;;;31.99;42.86;101828.78;4992216;28;20053;-73
2022/07/13 06:52:19;;;;;;;8.77;5.30;;;;;;;30.54;44.86;101827.69;4993355;28;20031;-72
2022/07/13 06:54:44;;;;;;;10.38;5.35;;;;;;;27.90;51.88;101828.31;4991825;28;20134;-73
2022/07/13 06:57:11;;;;;;;8.90;5.00;;;;;;;28.55;51.01;101825.31;4992183;28;20030;-72
2022/07/13 06:59:36;;;;;;;12.98;5.47;;;;;;;29.70;47.77;101830.50;4991992;28;20113;-72
2022/07/13 07:02:02;;;;;;;12.45;4.90;;;;;;;28.43;51.39;101836.34;4993463;28;20110;-73
2022/07/13 07:04:29;;;;;;;11.40;5.30;;;;;;;28.10;51.79;101824.69;4993398;28;20520;-74
2022/07/13 07:06:55;;;;;;;8.70;4.82;;;;;;;27.67;52.68;101830.56;4992082;28;20037;-76
2022/07/13 07:09:20;;;;;;;13.95;4.55;;;;;;;27.71;52.93;101828.16;4992096;28;20120;-71
2022/07/13 07:11:46;;;;;;;14.80;5.20;;;;;;;28.00;53.30;101833.53;4991967;28;20023;-73
2022/07/13 07:14:11;;;;;;;8.38;4.28;;;;;;;28.31;51.47;101831.41;4991994;28;20022;-73
2022/07/13 07:16:37;;;;;;;9.60;4.30;;;;;;;28.28;52.54;101836.47;4989897;28;20084;-72
2022/07/13 07:19:03;;;;;;;11.52;4.55;;;;;;;28.35;52.09;101837.72;4991135;28;20026;-73
2022/07/13 07:21:28;;;;;;;8.75;4.60;;;;;;;28.65;51.33;101835.84;4989899;28;20038;-72
2022/07/13 07:23:53;;;;;;;9.25;4.32;;;;;;;28.81;50.99;101843.66;4993823;28;20050;-73
2022/07/13 07:26:19;;;;;;;13.68;4.32;;;;;;;28.62;51.30;101841.72;4996127;28;20113;-73
2022/07/13 07:28:44;;;;;;;7.20;4.00;;;;;;;28.96;50.87;101836.25;4995702;28;20030;-72
2022/07/13 07:31:10;;;;;;;7.07;4.00;;;;;;;29.02;51.30;101837.00;4996863;28;20470;-73
2022/07/13 07:33:35;;;;;;;12.10;4.18;;;;;;;29.12;50.57;101828.91;4996835;28;20344;-72
2022/07/13 07:36:00;;;;;;;14.95;4.47;;;;;;;29.13;50.87;101830.50;4995410;28;20080;-73
2022/07/13 07:38:25;;;;;;;8.10;4.20;;;;;;;28.99;51.19;101835.69;4995465;28;20093;-72
2022/07/13 07:40:51;;;;;;;8.00;3.90;;;;;;;28.76;51.50;101834.63;4996599;28;20114;-73
2022/07/13 07:43:16;;;;;;;8.27;4.20;;;;;;;28.99;51.28;101832.25;5011121;28;20057;-73
2022/07/13 07:45:41;;;;;;;9.52;4.25;;;;;;;28.93;51.94;101833.38;4996355;28;20046;-72
2022/07/13 07:48:07;;;;;;;5.95;3.83;;;;;;;29.60;50.97;101831.38;4994989;28;20026;-72
2022/07/13 07:50:32;;;;;;;6.57;3.67;;;;;;;29.76;49.37;101832.00;5011560;28;20576;-72
2022/07/13 07:52:57;;;;;;;11.57;3.75;;;;;;;29.88;49.49;101828.84;4996590;28;20034;-73
2022/07/13 07:55:23;;;;;;;4.82;3.70;;;;;;;29.84;49.42;101833.19;4995188;28;20433;-73
2022/07/13 07:57:50;;;;;;;6.88;3.47;;;;;;;30.09;48.13;101829.28;4995246;28;20453;-73
2022/07/13 08:00:16;;;;;;;11.43;3.97;;;;;;;30.30;48.07;101825.22;4994864;28;20018;-73
2022/07/13 08:02:42;;;;;;;8.90;3.85;;;;;;;29.74;50.26;101833.34;4996133;28;20410;-72
2022/07/13 08:05:08;;;;;;;9.07;3.85;;;;;;;29.89;47.70;101825.09;4996663;28;20034;-73
2022/07/13 08:07:37;;;;;;;6.90;3.63;;;;;;;29.65;48.59;101823.34;4996333;28;20031;-73
2022/07/13 08:10:03;;;;;;;6.65;3.50;;;;;;;29.25;48.74;101840.69;4996347;28;20022;-73
2022/07/13 08:12:28;;;;;;;7.78;3.72;;;;;;;29.94;47.39;101843.69;4995004;28;20406;-73
2022/07/13 08:14:53;;;;;;;6.53;3.50;;;;;;;30.43;46.80;101836.97;4996122;28;20023;-72
2022/07/13 08:17:19;;;;;;;11.70;3.63;;;;;;;29.94;47.54;101829.56;4994659;28;20294;-73
2022/07/13 08:19:44;;;;;;;7.35;3.03;;;;;;;30.05;47.35;101838.97;4994611;28;20270;-72
2022/07/13 08:22:09;;;;;;;7.50;2.97;;;;;;;29.42;48.14;101842.88;4994839;28;20023;-73
2022/07/13 08:24:34;;;;;;;8.85;3.55;;;;;;;29.33;48.24;101828.63;4996883;28;20316;-74
2022/07/13 08:27:01;;;;;;;8.20;3.15;;;;;;;29.92;46.84;101837.84;4996363;28;20029;-72
2022/07/13 08:29:26;;;;;;;8.95;2.97;;;;;;;30.07;45.72;101836.81;4995854;28;20030;-72
2022/07/13 08:31:52;;;;;;;13.95;3.42;;;;;;;30.28;45.62;101834.59;4994524;28;20433;-72
2022/07/13 08:39:47;;;;;;;7.57;3.10;;;;;;;29.90;47.04;101835.47;4984547;28;20489;-73
2022/07/13 08:42:13;;;;;;;6.00;2.92;;;;;;;30.12;45.66;101834.03;5010699;28;20080;-73
2022/07/13 08:44:38;;;;;;;6.65;3.08;;;;;;;30.42;45.87;101831.94;4992708;28;20042;-72
2022/07/13 08:47:06;;;;;;;6.53;2.80;;;;;;;30.59;45.03;101837.47;4994555;28;20026;-72
2022/07/13 08:49:31;;;;;;;7.15;3.10;;;;;;;30.59;44.07;101834.81;4993321;28;20284;-72
2022/07/13 08:51:57;;;;;;;6.47;2.70;;;;;;;30.76;43.55;101843.00;4993840;28;20027;-73
2022/07/13 08:54:23;;;;;;;7.68;2.75;;;;;;;30.34;43.97;101838.75;4995176;28;20030;-72
2022/07/13 08:56:48;;;;;;;8.13;3.00;;;;;;;30.50;43.56;101836.59;4995050;28;20396;-72
2022/07/13 08:59:14;;;;;;;4.38;2.42;;;;;;;30.99;42.92;101840.44;4995296;28;20489;-76
2022/07/13 09:01:39;;;;;;;7.75;2.53;;;;;;;30.88;42.30;101842.50;4995134;28;20050;-72
2022/07/13 09:04:11;;;;;;;4.43;2.55;;;;;;;30.29;43.13;101847.63;4994922;28;20076;-73
2022/07/13 09:06:40;;;;;;;9.57;2.60;;;;;;;30.88;43.17;101839.06;4995258;28;20535;-72
2022/07/13 09:09:06;;;;;;;5.63;2.67;;;;;;;31.17;41.90;101836.03;4993400;28;20121;-73
2022/07/13 09:11:32;;;;;;;7.15;2.72;;;;;;;31.08;42.49;101824.50;4993819;28;20126;-72
2022/07/13 09:13:57;;;;;;;7.75;2.50;;;;;;;31.07;41.59;101833.56;4994923;28;20069;-72
2022/07/13 09:16:25;;;;;;;6.43;2.42;;;;;;;31.05;41.09;101835.78;4994978;28;20026;-72
2022/07/13 09:18:55;;;;;;;7.38;2.30;;;;;;;31.60;40.16;101825.69;4993957;28;20065;-72
2022/07/13 09:21:23;;;;;;;7.03;2.22;;;;;;;31.61;39.71;101835.28;4993319;28;20030;-72
2022/07/13 09:23:59;;;;;;;7.28;2.47;;;;;;;31.33;39.39;101836.47;4994812;28;20033;-72
2022/07/13 09:26:41;;;;;;;6.05;2.40;;;;;;;31.21;37.88;101826.31;4993890;28;20054;-73
2022/07/13 09:29:06;;;;;;;7.27;2.27;;;;;;;31.47;39.22;101834.56;4994752;28;20030;-72
2022/07/13 09:31:49;;;;;;;6.30;2.10;;;;;;;31.37;39.35;101840.16;4994603;28;20038;-73
2022/07/13 09:34:15;;;;;;;6.47;2.40;;;;;;;31.61;39.42;101848.63;4994709;28;20023;-72
2022/07/13 09:36:40;;;;;;;5.25;2.40;;;;;;;31.61;39.06;101845.19;4994646;28;20496;-72
2022/07/13 09:39:11;;;;;;;8.15;2.28;;;;;;;31.30;39.38;101843.19;4994655;28;20026;-72
2022/07/13 09:41:37;;;;;;;3.42;2.00;;;;;;;31.44;38.29;101851.97;4994770;28;20113;-73
2022/07/13 09:46:54;;;;;;;5.15;2.20;;;;;;;31.41;37.72;101849.13;4993395;28;20041;-73
2022/07/13 09:49:29;;;;;;;8.10;2.03;;;;;;;31.77;37.60;101859.75;4993057;28;20101;-73
2022/07/13 09:51:58;;;;;;;5.97;2.00;;;;;;;31.79;36.92;101849.53;4993744;28;20037;-72
2022/07/13 09:54:29;;;;;;;4.60;1.85;;;;;;;31.85;36.34;101847.53;4991305;28;20030;-72
2022/07/13 09:56:58;;;;;;;6.85;1.95;;;;;;;31.76;35.76;101847.47;4992947;28;20046;-73
2022/07/13 09:59:24;;;;;;;7.05;2.25;;;;;;;31.40;36.16;101855.56;4991650;28;20415;-73
2022/07/13 10:01:50;;;;;;;4.18;2.10;;;;;;;31.50;35.38;101854.53;4994083;28;20018;-73
2022/07/13 10:04:17;;;;;;;10.40;2.10;;;;;;;32.00;35.93;101841.06;4992764;28;20145;-72
2022/07/13 10:06:42;;;;;;;10.07;2.15;;;;;;;31.57;34.85;101850.34;4994017;28;20023;-72
2022/07/13 10:09:08;;;;;;;5.03;1.90;;;;;;;31.81;35.89;101857.25;4993934;28;20363;-71
2022/07/13 10:11:34;;;;;;;5.35;2.20;;;;;;;31.56;34.74;101861.31;4992762;28;20026;-72
2022/07/13 10:13:59;;;;;;;4.13;1.98;;;;;;;31.56;35.47;101856.78;4993914;28;20101;-73
2022/07/13 10:16:29;;;;;;;9.20;2.20;;;;;;;32.33;34.96;101866.38;4992824;28;20022;-72
2022/07/13 10:18:57;;;;;;;5.63;2.10;;;;;;;33.18;33.73;101852.00;4992276;28;20517;-72
2022/07/13 10:21:42;;;;;;;3.95;2.20;;;;;;;32.40;34.06;101860.59;4993891;28;20026;-73
2022/07/13 10:24:17;;;;;;;5.70;2.10;;;;;;;32.69;34.07;101868.09;4992685;28;20393;-72
2022/07/13 10:26:43;;;;;;;8.13;2.25;;;;;;;32.40;35.29;101859.78;4992618;28;20034;-73
2022/07/13 10:29:10;;;;;;;5.40;2.22;;;;;;;32.03;35.63;101867.97;4992556;28;20503;-72
2022/07/13 10:31:36;;;;;;;3.50;2.17;;;;;;;31.55;36.23;101865.09;4993682;28;20054;-72
2022/07/13 10:34:04;;;;;;;5.18;2.53;;;;;;;31.27;36.14;101862.47;4992149;28;20393;-72
2022/07/13 10:36:47;;;;;;;8.07;2.45;;;;;;;31.29;37.25;101878.22;4993681;28;20023;-72
2022/07/13 10:39:14;;;;;;;3.83;2.20;;;;;;;31.40;36.33;101879.59;4992207;28;20052;-73
2022/07/13 10:42:07;;;;;;;5.03;2.50;;;;;;;31.30;36.62;101879.78;4992264;28;20022;-73
2022/07/13 10:44:39;;;;;;;6.25;2.60;;;;;;;30.84;38.17;101891.44;4993364;28;20058;-73
2022/07/13 10:47:07;;;;;;;6.63;2.15;;;;;;;30.42;39.59;101912.72;4993399;28;20478;-72
2022/07/13 10:49:34;;;;;;;5.50;2.40;;;;;;;30.20;38.96;101902.66;4993497;28;20537;-72
2022/07/13 10:52:19;;;;;;;6.68;2.15;;;;;;;31.56;37.17;101906.75;4993406;28;20113;-72
2022/07/13 10:55:11;;;;;;;5.47;2.40;;;;;;;31.52;36.24;101901.22;4993395;28;20026;-72
2022/07/13 10:57:39;;;;;;;4.97;2.20;;;;;;;31.41;36.84;101911.34;4993638;28;20025;-73
2022/07/13 11:00:24;;;;;;;9.63;2.40;;;;;;;31.83;36.37;101906.66;4996137;28;20030;-73
2022/07/13 11:03:01;;;;;;;6.93;2.67;;;;;;;31.99;35.40;101914.31;4997623;28;20038;-73
2022/07/13 11:05:30;;;;;;;8.68;2.45;;;;;;;31.19;37.20;101917.41;4996082;28;20027;-73
2022/07/13 11:07:56;;;;;;;6.47;2.50;;;;;;;30.64;36.28;101916.59;4996137;28;20026;-74
2022/07/13 11:10:25;;;;;;;9.00;2.58;;;;;;;30.82;37.23;101929.09;4997330;28;20084;-72
2022/07/13 11:13:03;;;;;;;6.00;2.38;;;;;;;31.77;36.16;101918.56;4995949;28;20061;-73
2022/07/13 11:15:45;;;;;;;4.93;2.45;;;;;;;31.87;36.45;101907.59;4995978;28;20370;-73
2022/07/13 11:18:27;;;;;;;6.28;2.28;;;;;;;31.95;36.05;101911.47;4995349;28;20029;-73
2022/07/13 11:21:22;;;;;;;4.70;2.50;;;;;;;31.55;36.58;101919.31;4995778;28;20030;-73
2022/07/13 11:26:51;;;;;;;8.40;2.45;;;;;;;32.32;35.42;101917.50;4996246;28;20065;-73
2022/07/13 11:29:37;;;;;;;7.88;2.30;;;;;;;32.63;35.27;101917.50;4996268;28;20090;-73